Data for 12/13/2009

Time Sea-Level Adjusted Pressure Absolute Pressure Temperature Relative Humidity Dew Point Precipitation   
(mb) (inHg) (mb) (inHg) (C) (F) (%) (C) (F) (mm) (in)
10:16 1006 29.71 835 24.66 -17.8 -0.1 82 -20.2 -4.4 -17.58 -0.692
10:17 1006 29.71 835 24.66 -17.7 0.1 82 -20.1 -4.2 -17.65 -0.695
10:18 1006 29.71 836 24.69 -17.8 -0.1 81 -20.3 -4.5 -17.61 -0.693
10:19 1006 29.71 836 24.69 -17.8 -0.1 82 -20.2 -4.4 -17.62 -0.694
10:20 1006 29.71 836 24.69 -17.8 -0.1 83 -20.1 -4.2 -17.62 -0.694
10:21 1006 29.71 836 24.69 -17.9 -0.2 83 -20.2 -4.3 -17.6 -0.693
10:22 1006 29.71 836 24.69 -17.9 -0.1 82 -20.3 -4.5 -17.58 -0.692
10:23 1006 29.71 836 24.69 -17.8 -0.1 82 -20.2 -4.4 -17.58 -0.692
10:24 1006 29.71 836 24.69 -17.8 -0.1 82 -20.2 -4.4 -17.55 -0.691
10:25 1006 29.71 836 24.69 -17.8 -0.1 81 -20.3 -4.5 -17.53 -0.69
10:26 1006 29.71 836 24.69 -17.8 -0 82 -20.2 -4.4 -17.52 -0.69
10:27 1006 29.71 836 24.69 -17.8 0 81 -20.2 -4.4 -17.5 -0.689
10:28 1006 29.71 836 24.69 -17.8 -0 81 -20.3 -4.5 -17.47 -0.688
10:29 1006 29.71 836 24.69 -17.8 0.1 81 -20.2 -4.4 -17.43 -0.686
10:30 1006 29.71 836 24.69 -17.7 0.1 81 -20.2 -4.4 -17.38 -0.684
10:31 1006 29.71 836 24.69 -17.6 0.2 81 -20.2 -4.4 -17.35 -0.683
10:32 1006 29.71 836 24.69 -17.6 0.2 81 -20.2 -4.3 -17.3 -0.681
10:33 1006 29.71 836 24.69 -17.6 0.3 80 -20.2 -4.4 -17.26 -0.68
10:34 1006 29.71 836 24.69 -17.6 0.3 80 -20.3 -4.5 -17.27 -0.68
10:35 1006 29.71 836 24.69 -17.6 0.3 80 -20.2 -4.4 -17.21 -0.678
10:36 1006 29.71 836 24.69 -17.6 0.4 80 -20.2 -4.4 -17.21 -0.678
10:37 1006 29.71 836 24.69 -17.5 0.5 80 -20.1 -4.3 -17.19 -0.677
10:38 1006 29.71 836 24.69 -17.4 0.6 80 -20.1 -4.3 -17.19 -0.677
10:39 1006 29.71 836 24.69 -17.4 0.7 80 -20.1 -4.1 -17.14 -0.675
10:40 1007 29.74 836 24.69 -17.4 0.8 80 -20 -4 -17.12 -0.674
10:41 1007 29.74 836 24.69 -17.3 0.9 80 -20 -4 -17.1 -0.673
10:42 1007 29.74 836 24.69 -17.2 1.1 79 -20 -4.1 -17.04 -0.671
10:43 1007 29.74 836 24.69 -17.2 1.1 78 -20.1 -4.2 -16.98 -0.669
10:44 1007 29.74 836 24.69 -17.2 1 78 -20.2 -4.3 -17.05 -0.671
10:45 1007 29.74 836 24.69 -17.3 0.9 79 -20.2 -4.3 -17.01 -0.67
10:46 1007 29.74 836 24.69 -17.3 0.9 79 -20.1 -4.3 -17.02 -0.67
10:47 1006 29.71 836 24.69 -17.3 0.9 79 -20.1 -4.1 -17 -0.669
10:48 1006 29.71 836 24.69 -17.2 1.1 79 -20 -4.1 -16.95 -0.667
10:49 1007 29.74 836 24.69 -17.1 1.2 78 -20 -4.1 -16.93 -0.667
10:50 1007 29.74 836 24.69 -17.1 1.3 78 -20 -4 -16.99 -0.669
10:51 1007 29.74 836 24.69 -17.1 1.3 77 -20.2 -4.3 -17.01 -0.67
10:52 1007 29.74 836 24.69 -17.2 1.1 77 -20.2 -4.4 -17 -0.669
10:53 1007 29.74 836 24.69 -17.2 1.1 78 -20.2 -4.3 -17.03 -0.67
10:54 1007 29.74 836 24.69 -17.2 1.1 78 -20.2 -4.4 -17 -0.669
10:55 1006 29.71 836 24.69 -17.1 1.2 78 -20.1 -4.2 -16.95 -0.667
10:56 1006 29.71 836 24.69 -17.2 1.1 77 -20.3 -4.5 -16.95 -0.667
10:57 1006 29.71 836 24.69 -17.3 0.8 78 -20.3 -4.6 -17.03 -0.67
10:58 1006 29.71 836 24.69 -17.4 0.6 78 -20.4 -4.7 -17.1 -0.673
10:59 1006 29.71 836 24.69 -17.5 0.6 79 -20.3 -4.5 -17.14 -0.675
11:00 1006 29.71 836 24.69 -17.4 0.7 79 -20.2 -4.3 -17.16 -0.676
11:01 1006 29.71 836 24.69 -17.4 0.7 79 -20.2 -4.4 -17.11 -0.674
11:02 1006 29.71 836 24.69 -17.4 0.7 79 -20.2 -4.4 -17.12 -0.674
11:03 1006 29.71 836 24.69 -17.5 0.5 79 -20.3 -4.5 -17.06 -0.672
11:04 1006 29.71 836 24.69 -17.5 0.6 80 -20.2 -4.3 -17.1 -0.673
11:05 1006 29.71 836 24.69 -17.4 0.6 79 -20.2 -4.4 -16.99 -0.669
11:06 1006 29.71 836 24.69 -17.4 0.7 79 -20.2 -4.3 -17.01 -0.67
11:07 1006 29.71 836 24.69 -17.4 0.7 79 -20.2 -4.3 -16.98 -0.669
11:08 1006 29.71 836 24.69 -17.4 0.7 79 -20.2 -4.3 -17.02 -0.67
11:09 1006 29.71 836 24.69 -17.4 0.8 79 -20.1 -4.2 -17.07 -0.672
11:10 1006 29.71 836 24.69 -17.4 0.7 80 -20.1 -4.1 -17.1 -0.673
11:11 1006 29.71 835 24.66 -17.4 0.8 79 -20.1 -4.2 -17.05 -0.671
11:12 1006 29.71 835 24.66 -17.3 0.8 79 -20.1 -4.1 -17.04 -0.671
11:13 1006 29.71 836 24.69 -17.3 0.9 79 -20.2 -4.3 -17.06 -0.672
11:14 1006 29.71 836 24.69 -17.3 0.8 79 -20.2 -4.3 -17.09 -0.673
11:15 1006 29.71 836 24.69 -17.4 0.8 79 -20.2 -4.4 -17.07 -0.672
11:16 1006 29.71 836 24.69 -17.4 0.6 79 -20.3 -4.5 -17.12 -0.674
11:17 1006 29.71 835 24.66 -17.4 0.6 79 -20.2 -4.4 -17.15 -0.675
11:18 1006 29.71 835 24.66 -17.4 0.6 79 -20.2 -4.3 -17.2 -0.677
11:19 1006 29.71 835 24.66 -17.4 0.6 80 -20.2 -4.3 -17.21 -0.678
11:20 1006 29.71 835 24.66 -17.5 0.6 80 -20.2 -4.3 -17.18 -0.676
11:21 1006 29.71 835 24.66 -17.5 0.5 80 -20.2 -4.3 -17.19 -0.677
11:22 1006 29.71 835 24.66 -17.5 0.5 80 -20.2 -4.3 -17.24 -0.679
11:23 1006 29.71 835 24.66 -17.5 0.4 80 -20.2 -4.4 -17.25 -0.679
11:24 1006 29.71 835 24.66 -17.5 0.4 80 -20.2 -4.3 -17.27 -0.68
11:25 1006 29.71 835 24.66 -17.5 0.4 80 -20.2 -4.3 -17.27 -0.68
11:26 1006 29.71 835 24.66 -17.6 0.4 80 -20.2 -4.3 -17.27 -0.68
11:27 1006 29.71 835 24.66 -17.5 0.4 80 -20.2 -4.4 -17.3 -0.681
11:28 1006 29.71 835 24.66 -17.6 0.4 80 -20.3 -4.5 -17.32 -0.682
11:29 1006 29.71 835 24.66 -17.6 0.3 80 -20.2 -4.4 -17.35 -0.683
11:30 1006 29.71 835 24.66 -17.6 0.4 80 -20.3 -4.6 -17.34 -0.683
11:31 1006 29.71 835 24.66 -17.6 0.3 80 -20.3 -4.5 -17.36 -0.683
11:32 1006 29.71 835 24.66 -17.7 0.2 80 -20.4 -4.6 -17.38 -0.684
11:33 1006 29.71 835 24.66 -17.7 0.1 80 -20.4 -4.7 -17.38 -0.684
11:34 1006 29.71 835 24.66 -17.7 0.1 81 -20.3 -4.5 -17.35 -0.683
11:35 1006 29.71 835 24.66 -17.6 0.2 80 -20.3 -4.5 -17.34 -0.683
11:36 1006 29.71 835 24.66 -17.7 0.2 80 -20.3 -4.6 -17.34 -0.683
11:37 1006 29.71 835 24.66 -17.7 0.2 81 -20.3 -4.5 -17.38 -0.684
11:38 1006 29.71 835 24.66 -17.6 0.3 80 -20.3 -4.5 -17.34 -0.683
11:39 1006 29.71 835 24.66 -17.6 0.3 80 -20.3 -4.6 -17.3 -0.681
11:40 1006 29.71 835 24.66 -17.6 0.4 80 -20.2 -4.4 -17.26 -0.68
11:41 1006 29.71 835 24.66 -17.6 0.3 80 -20.3 -4.6 -17.28 -0.68
11:42 1006 29.71 835 24.66 -17.7 0.2 80 -20.3 -4.6 -17.33 -0.682
11:43 1006 29.71 835 24.66 -17.7 0.1 80 -20.4 -4.7 -17.32 -0.682
11:44 1006 29.71 835 24.66 -17.7 0.2 80 -20.4 -4.6 -17.29 -0.681
11:45 1006 29.71 835 24.66 -17.7 0.1 80 -20.3 -4.6 -17.27 -0.68
11:46 1006 29.71 835 24.66 -17.6 0.4 80 -20.2 -4.3 -17.18 -0.676
11:47 1006 29.71 835 24.66 -17.4 0.7 79 -20.2 -4.4 -17.08 -0.672
11:48 1006 29.71 835 24.66 -17.4 0.7 79 -20.2 -4.3 -17.01 -0.67
11:49 1006 29.71 835 24.66 -17.3 0.9 79 -20 -4.1 -16.89 -0.665
11:50 1006 29.71 835 24.66 -17.1 1.3 80 -19.8 -3.6 -16.74 -0.659
11:51 1006 29.71 835 24.66 -16.7 1.9 78 -19.8 -3.6 -16.65 -0.656
11:52 1006 29.71 835 24.66 -16.7 1.9 76 -20 -3.9 -16.6 -0.654
11:53 1006 29.71 835 24.66 -16.8 1.7 77 -19.9 -3.8 -16.63 -0.655
11:54 1006 29.71 835 24.66 -16.9 1.5 77 -20.1 -4.1 -16.64 -0.655
11:55 1006 29.71 835 24.66 -17 1.5 77 -20.1 -4.2 -16.64 -0.655
11:56 1006 29.71 835 24.66 -17 1.4 77 -20.2 -4.3 -16.65 -0.656
11:57 1006 29.71 835 24.66 -17 1.4 78 -20.1 -4.1 -16.74 -0.659
11:58 1006 29.71 835 24.66 -17 1.3 77 -20.2 -4.4 -16.79 -0.661
11:59 1006 29.71 835 24.66 -17.2 1.1 77 -20.3 -4.6 -16.89 -0.665
12:00 1006 29.71 835 24.66 -17.2 1 78 -20.3 -4.5 -16.92 -0.666
12:01 1006 29.71 835 24.66 -17.3 0.9 78 -20.3 -4.5 -16.92 -0.666
12:02 1006 29.71 835 24.66 -17.3 0.8 78 -20.3 -4.5 -16.95 -0.667
12:03 1006 29.71 835 24.66 -17.3 0.8 78 -20.3 -4.6 -17.01 -0.67
12:04 1006 29.71 835 24.66 -17.4 0.6 78 -20.4 -4.7 -17.05 -0.671
12:05 1006 29.71 835 24.66 -17.4 0.7 79 -20.3 -4.5 -17.03 -0.67
12:06 1006 29.71 835 24.66 -17.3 0.9 78 -20.2 -4.4 -16.98 -0.669
12:07 1006 29.71 835 24.66 -17.2 1 78 -20.2 -4.4 -16.95 -0.667
12:08 1006 29.71 835 24.66 -17.2 1 77 -20.3 -4.5 -16.95 -0.667
12:09 1006 29.71 835 24.66 -17.2 1 77 -20.3 -4.5 -16.92 -0.666
12:10 1006 29.71 835 24.66 -17.3 0.8 78 -20.3 -4.5 -16.94 -0.667
12:11 1006 29.71 835 24.66 -17.4 0.8 78 -20.4 -4.7 -16.96 -0.668
12:12 1006 29.71 835 24.66 -17.4 0.7 78 -20.3 -4.5 -17 -0.669
12:13 1006 29.71 835 24.66 -17.4 0.8 78 -20.3 -4.5 -16.97 -0.668
12:14 1006 29.71 835 24.66 -17.3 0.9 78 -20.3 -4.5 -16.92 -0.666
12:15 1006 29.71 835 24.66 -17.3 0.9 78 -20.3 -4.5 -16.95 -0.667
12:16 1006 29.71 835 24.66 -17.3 0.8 78 -20.3 -4.6 -16.89 -0.665
12:17 1006 29.71 835 24.66 -17.3 0.9 77 -20.4 -4.7 -16.84 -0.663
12:18 1006 29.71 835 24.66 -17.3 0.9 78 -20.3 -4.5 -16.88 -0.665
12:19 1006 29.71 835 24.66 -17.3 0.9 77 -20.4 -4.8 -16.88 -0.665
12:20 1006 29.71 835 24.66 -17.4 0.8 77 -20.4 -4.8 -16.99 -0.669
12:21 1006 29.71 835 24.66 -17.5 0.6 78 -20.4 -4.7 -17.05 -0.671
12:22 1006 29.71 835 24.66 -17.5 0.5 78 -20.4 -4.7 -17.08 -0.672
12:23 1006 29.71 835 24.66 -17.6 0.4 79 -20.4 -4.7 -17.15 -0.675
12:24 1006 29.71 835 24.66 -17.5 0.5 79 -20.4 -4.7 -17.07 -0.672
12:25 1006 29.71 835 24.66 -17.5 0.4 79 -20.4 -4.7 -17.11 -0.674
12:26 1006 29.71 835 24.66 -17.6 0.4 79 -20.4 -4.8 -17.11 -0.674
12:27 1006 29.71 835 24.66 -17.6 0.4 79 -20.4 -4.7 -17.1 -0.673
12:28 1006 29.71 835 24.66 -17.4 0.6 79 -20.3 -4.6 -17.02 -0.67
12:29 1006 29.71 835 24.66 -17.4 0.6 78 -20.4 -4.8 -17.03 -0.67
12:30 1006 29.71 835 24.66 -17.5 0.5 79 -20.3 -4.6 -17.03 -0.67
12:31 1006 29.71 835 24.66 -17.5 0.5 78 -20.4 -4.7 -17.06 -0.672
12:32 1006 29.71 835 24.66 -17.6 0.4 78 -20.5 -4.9 -17.13 -0.674
12:33 1006 29.71 835 24.66 -17.6 0.3 78 -20.6 -5 -17.19 -0.677
12:34 1006 29.71 835 24.66 -17.7 0.1 79 -20.5 -4.9 -17.23 -0.678
12:35 1006 29.71 835 24.66 -17.8 0 79 -20.6 -5.1 -17.27 -0.68
12:36 1006 29.71 835 24.66 -17.8 -0 79 -20.5 -5 -17.31 -0.681
12:37 1006 29.71 835 24.66 -17.8 -0 80 -20.5 -4.9 -17.28 -0.68
12:38 1006 29.71 835 24.66 -17.8 0 80 -20.5 -4.8 -17.27 -0.68
12:39 1006 29.71 835 24.66 -17.8 -0 80 -20.5 -4.8 -17.25 -0.679
12:40 1006 29.71 835 24.66 -17.8 -0 80 -20.5 -4.9 -17.27 -0.68
12:41 1006 29.71 835 24.66 -17.8 0 79 -20.5 -5 -17.28 -0.68
12:42 1006 29.71 835 24.66 -17.7 0.1 80 -20.5 -4.8 -17.23 -0.678
12:43 1006 29.71 835 24.66 -17.7 0.2 80 -20.4 -4.7 -17.16 -0.676
12:44 1006 29.71 835 24.66 -17.6 0.4 78 -20.5 -4.8 -17.11 -0.674
12:45 1006 29.71 835 24.66 -17.6 0.3 79 -20.5 -4.9 -17.12 -0.674
12:46 1006 29.71 835 24.66 -17.5 0.4 79 -20.4 -4.7 -17.06 -0.672
12:47 1006 29.71 835 24.66 -17.6 0.4 79 -20.5 -4.8 -17.08 -0.672
12:48 1006 29.71 835 24.66 -17.6 0.4 80 -20.3 -4.5 -17.05 -0.671
12:49 1006 29.71 835 24.66 -17.5 0.5 79 -20.3 -4.6 -16.99 -0.669
12:50 1006 29.71 835 24.66 -17.4 0.6 78 -20.4 -4.6 -16.94 -0.667
12:51 1006 29.71 835 24.66 -17.5 0.6 79 -20.3 -4.6 -17.01 -0.67
12:52 1006 29.71 835 24.66 -17.5 0.5 78 -20.4 -4.7 -17.02 -0.67
12:53 1006 29.71 835 24.66 -17.5 0.5 79 -20.3 -4.5 -17.02 -0.67
12:54 1005 29.68 835 24.66 -17.4 0.6 80 -20.1 -4.3 -16.96 -0.668
12:55 1005 29.68 835 24.66 -17.4 0.7 80 -20.1 -4.2 -16.91 -0.666
12:56 1006 29.71 835 24.66 -17.3 0.9 78 -20.2 -4.4 -16.81 -0.662
12:57 1005 29.68 835 24.66 -17.3 0.9 79 -20.2 -4.3 -16.79 -0.661
12:58 1006 29.71 835 24.66 -17.3 0.8 78 -20.3 -4.5 -16.81 -0.662
12:59 1006 29.71 835 24.66 -17.3 0.8 79 -20.2 -4.4 -16.83 -0.663
13:00 1006 29.71 835 24.66 -17.3 0.8 79 -20.2 -4.3 -16.88 -0.665
13:01 1006 29.71 835 24.66 -17.4 0.7 79 -20.2 -4.3 -16.92 -0.666
13:02 1006 29.71 835 24.66 -17.4 0.6 79 -20.2 -4.4 -16.95 -0.667
13:03 1006 29.71 835 24.66 -17.4 0.6 79 -20.3 -4.6 -16.95 -0.667
13:04 1006 29.71 835 24.66 -17.5 0.6 79 -20.3 -4.5 -16.97 -0.668
13:05 1006 29.71 835 24.66 -17.5 0.5 79 -20.3 -4.5 -17.01 -0.67
13:06 1006 29.71 835 24.66 -17.5 0.5 79 -20.3 -4.5 -17 -0.669
13:07 1006 29.71 835 24.66 -17.5 0.4 80 -20.2 -4.3 -17.05 -0.671
13:08 1005 29.68 835 24.66 -17.6 0.4 80 -20.3 -4.5 -16.99 -0.669
13:09 1005 29.68 835 24.66 -17.5 0.5 80 -20.2 -4.3 -17.01 -0.67
13:10 1006 29.71 835 24.66 -17.5 0.6 79 -20.2 -4.4 -16.95 -0.667
13:11 1006 29.71 835 24.66 -17.4 0.7 80 -20.1 -4.1 -16.93 -0.667
13:12 1006 29.71 835 24.66 -17.4 0.6 79 -20.2 -4.3 -16.93 -0.667
13:13 1006 29.71 835 24.66 -17.5 0.6 80 -20.2 -4.3 -16.97 -0.668
13:14 1006 29.71 835 24.66 -17.5 0.5 80 -20.2 -4.4 -16.99 -0.669
13:15 1006 29.71 835 24.66 -17.5 0.4 80 -20.2 -4.4 -17.04 -0.671
13:16 1006 29.71 835 24.66 -17.5 0.4 80 -20.2 -4.4 -17.07 -0.672
13:17 1006 29.71 835 24.66 -17.6 0.4 80 -20.3 -4.5 -17.09 -0.673
13:18 1006 29.71 835 24.66 -17.6 0.4 81 -20.1 -4.3 -17.06 -0.672
13:19 1006 29.71 835 24.66 -17.5 0.5 81 -20.1 -4.1 -17.04 -0.671
13:20 1006 29.71 835 24.66 -17.4 0.8 80 -20 -4 -16.97 -0.668
13:21 1006 29.71 835 24.66 -17.3 0.8 79 -20.1 -4.2 -16.91 -0.666
13:22 1006 29.71 835 24.66 -17.3 0.9 79 -20.1 -4.1 -16.88 -0.665
13:23 1006 29.71 835 24.66 -17.3 0.8 79 -20.1 -4.3 -16.91 -0.666
13:24 1006 29.71 835 24.66 -17.3 0.8 80 -20 -4.1 -16.91 -0.666
13:25 1006 29.71 835 24.66 -17.3 0.9 79 -20.1 -4.1 -16.87 -0.664
13:26 1006 29.71 835 24.66 -17.3 0.8 79 -20.2 -4.3 -16.94 -0.667
13:27 1006 29.71 835 24.66 -17.4 0.8 79 -20.1 -4.2 -16.9 -0.665
13:28 1006 29.71 835 24.66 -17.4 0.7 79 -20.2 -4.3 -16.86 -0.664
13:29 1006 29.71 835 24.66 -17.3 0.8 79 -20.1 -4.2 -16.82 -0.662
13:30 1006 29.71 835 24.66 -17.3 0.8 79 -20.1 -4.3 -16.84 -0.663
13:31 1006 29.71 835 24.66 -17.3 0.8 79 -20.1 -4.2 -16.84 -0.663
13:32 1006 29.71 835 24.66 -17.3 0.8 79 -20.2 -4.4 -16.83 -0.663
13:33 1006 29.71 835 24.66 -17.4 0.7 79 -20.2 -4.4 -16.89 -0.665
13:34 1006 29.71 835 24.66 -17.4 0.7 79 -20.2 -4.3 -16.9 -0.665
13:35 1006 29.71 835 24.66 -17.4 0.7 79 -20.2 -4.3 -16.92 -0.666
13:36 1006 29.71 835 24.66 -17.4 0.7 80 -20.1 -4.1 -16.89 -0.665
13:37 1006 29.71 835 24.66 -17.3 0.8 80 -20 -4 -16.84 -0.663
13:38 1006 29.71 835 24.66 -17.3 1 79 -20 -4 -16.75 -0.659
13:39 1006 29.71 835 24.66 -17.3 0.9 79 -20.1 -4.2 -16.76 -0.66
13:40 1006 29.71 835 24.66 -17.3 0.9 80 -19.9 -3.9 -16.8 -0.661
13:41 1006 29.71 835 24.66 -17.2 1.1 80 -19.8 -3.7 -16.76 -0.66
13:42 1006 29.71 835 24.66 -17.2 1.1 80 -19.9 -3.7 -16.7 -0.657
13:43 1006 29.71 835 24.66 -17.2 1.1 79 -20 -3.9 -16.73 -0.659
13:44 1006 29.71 835 24.66 -17.2 1 79 -20 -4.1 -16.75 -0.659
13:45 1006 29.71 835 24.66 -17.2 1 78 -20.1 -4.2 -16.77 -0.66
13:46 1006 29.71 835 24.66 -17.2 1.1 79 -20 -4.1 -16.75 -0.659
13:47 1006 29.71 835 24.66 -17.1 1.1 79 -20 -4.1 -16.71 -0.658
13:48 1006 29.71 835 24.66 -17.2 1.1 79 -20.1 -4.1 -16.69 -0.657
13:49 1006 29.71 835 24.66 -17.1 1.2 78 -20.1 -4.2 -16.67 -0.656
13:50 1006 29.71 835 24.66 -17.2 1.1 78 -20.1 -4.1 -16.69 -0.657
13:51 1006 29.71 835 24.66 -17.1 1.2 79 -20 -4 -16.63 -0.655
13:52 1006 29.71 835 24.66 -17.1 1.2 79 -20 -4 -16.62 -0.654
13:53 1006 29.71 835 24.66 -17.1 1.2 78 -20.1 -4.1 -16.67 -0.656
13:54 1006 29.71 835 24.66 -17.2 1.1 78 -20.1 -4.2 -16.68 -0.657
13:55 1006 29.71 835 24.66 -17.2 1.1 79 -20 -4 -16.65 -0.656
13:56 1006 29.71 835 24.66 -17.1 1.2 79 -20 -4 -16.59 -0.653
13:57 1006 29.71 835 24.66 -17.1 1.3 79 -19.9 -3.8 -16.59 -0.653
13:58 1006 29.71 835 24.66 -17 1.3 79 -19.9 -3.9 -16.54 -0.651
13:59 1006 29.71 835 24.66 -17 1.4 78 -19.9 -3.9 -16.56 -0.652
14:00 1006 29.71 835 24.66 -17 1.5 78 -19.9 -3.9 -16.5 -0.65
14:01 1006 29.71 835 24.66 -16.9 1.6 78 -19.9 -3.8 -16.48 -0.649
14:02 1006 29.71 835 24.66 -16.8 1.7 77 -19.9 -3.8 -16.49 -0.649
14:03 1006 29.71 835 24.66 -16.8 1.9 77 -19.9 -3.7 -16.43 -0.647
14:04 1006 29.71 835 24.66 -16.7 1.9 77 -19.9 -3.8 -16.32 -0.643
14:05 1006 29.71 835 24.66 -16.7 1.9 76 -20 -3.9 -16.35 -0.644
14:06 1006 29.71 835 24.66 -16.7 1.9 76 -20 -4.1 -16.35 -0.644
14:07 1006 29.71 835 24.66 -16.8 1.8 77 -20 -4 -16.36 -0.644
14:08 1006 29.71 835 24.66 -16.8 1.7 77 -19.9 -3.9 -16.37 -0.644
14:09 1006 29.71 835 24.66 -16.9 1.7 77 -20.1 -4.1 -16.36 -0.644
14:10 1006 29.71 835 24.66 -16.8 1.8 78 -19.8 -3.6 -16.32 -0.643
14:11 1006 29.71 835 24.66 -16.7 1.9 77 -19.9 -3.9 -16.22 -0.639
14:12 1006 29.71 835 24.66 -16.7 2 77 -19.9 -3.7 -16.22 -0.639
14:13 1006 29.71 835 24.66 -16.7 1.9 77 -19.9 -3.8 -16.28 -0.641
14:14 1006 29.71 835 24.66 -16.8 1.7 77 -20 -4.1 -16.36 -0.644
14:15 1005 29.68 835 24.66 -16.8 1.7 77 -20 -4 -16.35 -0.644
14:16 1006 29.71 835 24.66 -16.8 1.7 76 -20 -4.1 -16.3 -0.642
14:17 1006 29.71 835 24.66 -16.9 1.7 77 -20 -4 -16.32 -0.643
14:18 1006 29.71 835 24.66 -16.9 1.6 77 -20 -4 -16.39 -0.645
14:19 1006 29.71 835 24.66 -17 1.4 78 -20 -4 -16.49 -0.649
14:20 1006 29.71 835 24.66 -17.1 1.3 78 -20 -4 -16.58 -0.653
14:21 1006 29.71 835 24.66 -17.1 1.2 79 -20 -4 -16.62 -0.654
14:22 1006 29.71 835 24.66 -17.2 1.1 80 -19.9 -3.8 -16.67 -0.656
14:23 1006 29.71 835 24.66 -17.2 1.1 79 -20 -4 -16.71 -0.658
14:24 1006 29.71 835 24.66 -17.2 1 80 -19.9 -3.9 -16.71 -0.658
14:25 1006 29.71 835 24.66 -17.2 1.1 79 -19.9 -3.9 -16.74 -0.659
14:26 1006 29.71 835 24.66 -17.2 1 79 -20.1 -4.2 -16.76 -0.66
14:27 1006 29.71 835 24.66 -17.3 1 79 -20.1 -4.1 -16.82 -0.662
14:28 1006 29.71 835 24.66 -17.3 0.9 80 -20 -3.9 -16.83 -0.663
14:29 1006 29.71 835 24.66 -17.3 1 79 -20 -4.1 -16.79 -0.661
14:30 1006 29.71 835 24.66 -17.3 0.9 79 -20 -4.1 -16.79 -0.661
14:31 1006 29.71 835 24.66 -17.3 0.8 79 -20.1 -4.2 -16.82 -0.662
14:32 1006 29.71 835 24.66 -17.3 0.8 80 -20.1 -4.1 -16.84 -0.663
14:33 1006 29.71 835 24.66 -17.3 0.8 80 -20 -4 -16.82 -0.662
14:34 1006 29.71 835 24.66 -17.3 0.9 79 -20.1 -4.1 -16.84 -0.663
14:35 1006 29.71 835 24.66 -17.4 0.8 80 -20.1 -4.2 -16.85 -0.663
14:36 1006 29.71 835 24.66 -17.4 0.8 79 -20.2 -4.3 -16.82 -0.662
14:37 1006 29.71 835 24.66 -17.4 0.8 79 -20.2 -4.3 -16.84 -0.663
14:38 1006 29.71 835 24.66 -17.3 0.9 80 -20 -4 -16.8 -0.661
14:39 1006 29.71 835 24.66 -17.3 0.9 80 -20 -4 -16.79 -0.661
14:40 1006 29.71 835 24.66 -17.3 0.9 79 -20 -4.1 -16.78 -0.661
14:41 1006 29.71 835 24.66 -17.3 0.9 80 -20 -4 -16.79 -0.661
14:42 1006 29.71 835 24.66 -17.3 0.9 79 -20.1 -4.1 -16.78 -0.661
14:43 1006 29.71 835 24.66 -17.3 0.9 80 -20 -4 -16.81 -0.662
14:44 1006 29.71 835 24.66 -17.3 0.9 79 -20 -4.1 -16.81 -0.662
14:45 1006 29.71 835 24.66 -17.3 0.8 79 -20.1 -4.2 -16.83 -0.663
14:46 1006 29.71 835 24.66 -17.4 0.7 79 -20.2 -4.4 -16.9 -0.665
14:47 1006 29.71 835 24.66 -17.4 0.7 80 -20.1 -4.1 -16.91 -0.666
14:48 1006 29.71 835 24.66 -17.4 0.6 79 -20.2 -4.4 -16.93 -0.667
14:49 1006 29.71 835 24.66 -17.5 0.5 80 -20.2 -4.3 -16.96 -0.668
14:50 1006 29.71 835 24.66 -17.5 0.5 80 -20.1 -4.3 -17.02 -0.67
14:51 1006 29.71 835 24.66 -17.5 0.5 80 -20.2 -4.4 -17.03 -0.67
14:52 1006 29.71 835 24.66 -17.6 0.4 79 -20.3 -4.5 -17.06 -0.672
14:53 1006 29.71 835 24.66 -17.6 0.4 80 -20.2 -4.4 -17.08 -0.672
14:54 1006 29.71 835 24.66 -17.6 0.4 80 -20.3 -4.5 -17.05 -0.671
14:55 1006 29.71 835 24.66 -17.6 0.3 80 -20.3 -4.6 -17.12 -0.674
14:56 1006 29.71 835 24.66 -17.6 0.3 79 -20.4 -4.7 -17.13 -0.674
14:57 1006 29.71 835 24.66 -17.7 0.2 80 -20.3 -4.6 -17.18 -0.676
14:58 1006 29.71 835 24.66 -17.6 0.2 80 -20.3 -4.6 -17.15 -0.675
14:59 1006 29.71 835 24.66 -17.7 0.2 80 -20.3 -4.5 -17.19 -0.677
15:00 1006 29.71 835 24.66 -17.7 0.2 80 -20.3 -4.6 -17.17 -0.676
15:01 1006 29.71 835 24.66 -17.6 0.2 80 -20.3 -4.6 -17.18 -0.676
15:02 1006 29.71 835 24.66 -17.6 0.2 80 -20.4 -4.7 -17.17 -0.676
15:03 1006 29.71 835 24.66 -17.6 0.2 80 -20.4 -4.6 -17.19 -0.677
15:04 1006 29.71 835 24.66 -17.7 0.2 80 -20.3 -4.6 -17.19 -0.677
15:05 1006 29.71 835 24.66 -17.7 0.2 80 -20.3 -4.6 -17.15 -0.675
15:06 1006 29.71 835 24.66 -17.7 0.2 80 -20.4 -4.7 -17.12 -0.674
15:07 1006 29.71 835 24.66 -17.7 0.2 80 -20.3 -4.6 -17.12 -0.674
15:08 1006 29.71 835 24.66 -17.6 0.3 79 -20.4 -4.7 -17.09 -0.673
15:09 1006 29.71 835 24.66 -17.6 0.3 79 -20.4 -4.6 -17.11 -0.674
15:10 1006 29.71 835 24.66 -17.5 0.4 80 -20.3 -4.5 -17.07 -0.672
15:11 1006 29.71 835 24.66 -17.6 0.4 79 -20.3 -4.6 -17.05 -0.671
15:12 1006 29.71 835 24.66 -17.6 0.4 79 -20.3 -4.6 -17.04 -0.671
15:13 1006 29.71 835 24.66 -17.6 0.4 79 -20.4 -4.6 -17.03 -0.67
15:14 1006 29.71 835 24.66 -17.6 0.3 79 -20.4 -4.7 -17.05 -0.671
15:15 1006 29.71 835 24.66 -17.6 0.3 79 -20.4 -4.7 -17.08 -0.672
15:16 1006 29.71 835 24.66 -17.6 0.3 79 -20.4 -4.7 -17.12 -0.674
15:17 1006 29.71 835 24.66 -17.6 0.3 79 -20.4 -4.7 -17.13 -0.674
15:18 1006 29.71 835 24.66 -17.6 0.2 79 -20.4 -4.8 -17.16 -0.676
15:19 1006 29.71 835 24.66 -17.7 0.2 79 -20.4 -4.8 -17.19 -0.677
15:20 1006 29.71 835 24.66 -17.7 0.1 80 -20.4 -4.8 -17.2 -0.677
15:21 1006 29.71 835 24.66 -17.7 0.2 80 -20.4 -4.7 -17.21 -0.678
15:22 1006 29.71 835 24.66 -17.7 0.1 80 -20.4 -4.7 -17.23 -0.678
15:23 1006 29.71 835 24.66 -17.7 0.2 80 -20.4 -4.7 -17.2 -0.677
15:24 1006 29.71 835 24.66 -17.7 0.1 80 -20.4 -4.7 -17.21 -0.678
15:25 1006 29.71 835 24.66 -17.7 0.1 80 -20.4 -4.7 -17.19 -0.677
15:26 1006 29.71 835 24.66 -17.7 0.2 80 -20.4 -4.7 -17.16 -0.676
15:27 1006 29.71 835 24.66 -17.7 0.2 80 -20.4 -4.7 -17.16 -0.676
15:28 1006 29.71 835 24.66 -17.6 0.3 80 -20.3 -4.6 -17.12 -0.674
15:29 1006 29.71 835 24.66 -17.6 0.4 79 -20.3 -4.6 -17.04 -0.671
15:30 1006 29.71 835 24.66 -17.5 0.5 79 -20.3 -4.5 -17.02 -0.67
15:31 1006 29.71 835 24.66 -17.5 0.5 79 -20.3 -4.6 -16.99 -0.669
15:32 1006 29.71 835 24.66 -17.5 0.6 79 -20.3 -4.5 -16.98 -0.669
15:33 1006 29.71 835 24.66 -17.5 0.5 79 -20.3 -4.5 -16.95 -0.667
15:34 1006 29.71 835 24.66 -17.5 0.5 79 -20.3 -4.5 -17.02 -0.67
15:35 1006 29.71 835 24.66 -17.5 0.5 79 -20.3 -4.5 -17.07 -0.672
15:36 1006 29.71 835 24.66 -17.6 0.4 79 -20.3 -4.6 -17.08 -0.672
15:37 1006 29.71 835 24.66 -17.6 0.4 79 -20.3 -4.6 -17.09 -0.673
15:38 1006 29.71 835 24.66 -17.6 0.3 79 -20.4 -4.7 -17.14 -0.675
15:39 1006 29.71 835 24.66 -17.6 0.3 79 -20.4 -4.7 -17.14 -0.675
15:40 1006 29.71 835 24.66 -17.6 0.3 79 -20.4 -4.7 -17.12 -0.674
15:41 1006 29.71 835 24.66 -17.6 0.3 79 -20.4 -4.7 -17.12 -0.674
15:42 1006 29.71 835 24.66 -17.6 0.2 80 -20.4 -4.7 -17.1 -0.673
15:43 1006 29.71 835 24.66 -17.7 0.2 79 -20.4 -4.7 -17.12 -0.674
15:44 1006 29.71 835 24.66 -17.6 0.2 79 -20.4 -4.7 -17.15 -0.675
15:45 1006 29.71 835 24.66 -17.7 0.1 79 -20.5 -4.9 -17.17 -0.676
15:46 1006 29.71 835 24.66 -17.7 0.2 80 -20.4 -4.7 -17.17 -0.676
15:47 1006 29.71 835 24.66 -17.7 0.2 79 -20.4 -4.8 -17.14 -0.675
15:48 1006 29.71 835 24.66 -17.7 0.2 80 -20.4 -4.7 -17.17 -0.676
15:49 1006 29.71 835 24.66 -17.7 0.2 80 -20.4 -4.7 -17.14 -0.675
15:50 1006 29.71 835 24.66 -17.7 0.2 80 -20.4 -4.7 -17.16 -0.676
15:51 1006 29.71 835 24.66 -17.7 0.2 80 -20.4 -4.7 -17.19 -0.677
15:52 1006 29.71 835 24.66 -17.7 0.1 80 -20.4 -4.7 -17.19 -0.677
15:53 1006 29.71 835 24.66 -17.7 0.1 80 -20.4 -4.6 -17.24 -0.679
15:54 1006 29.71 835 24.66 -17.7 0.1 80 -20.3 -4.6 -17.28 -0.68
15:55 1006 29.71 835 24.66 -17.7 0.1 81 -20.3 -4.5 -17.27 -0.68
15:56 1006 29.71 835 24.66 -17.7 0.1 81 -20.3 -4.5 -17.28 -0.68
15:57 1006 29.71 835 24.66 -17.7 0.1 81 -20.3 -4.5 -17.26 -0.68
15:58 1006 29.71 836 24.69 -17.7 0.1 81 -20.3 -4.5 -17.28 -0.68
15:59 1006 29.71 836 24.69 -17.7 0.1 81 -20.2 -4.4 -17.26 -0.68
16:00 1006 29.71 836 24.69 -17.7 0.1 81 -20.2 -4.4 -17.27 -0.68
16:01 1006 29.71 836 24.69 -17.7 0.2 81 -20.2 -4.3 -17.24 -0.679
16:02 1006 29.71 836 24.69 -17.7 0.1 81 -20.2 -4.4 -17.25 -0.679
16:03 1006 29.71 836 24.69 -17.7 0.2 81 -20.2 -4.3 -17.23 -0.678
16:04 1006 29.71 836 24.69 -17.7 0.2 81 -20.1 -4.2 -17.19 -0.677
16:05 1006 29.71 836 24.69 -17.7 0.2 81 -20.2 -4.4 -17.19 -0.677
16:06 1006 29.71 836 24.69 -17.7 0.2 81 -20.2 -4.4 -17.2 -0.677
16:07 1006 29.71 836 24.69 -17.7 0.2 80 -20.3 -4.5 -17.2 -0.677
16:08 1006 29.71 836 24.69 -17.7 0.2 81 -20.2 -4.4 -17.18 -0.676
16:09 1006 29.71 836 24.69 -17.7 0.2 81 -20.2 -4.4 -17.2 -0.677
16:10 1006 29.71 836 24.69 -17.6 0.2 81 -20.2 -4.3 -17.16 -0.676
16:11 1006 29.71 836 24.69 -17.7 0.2 81 -20.2 -4.4 -17.2 -0.677
16:12 1006 29.71 836 24.69 -17.6 0.3 81 -20.2 -4.4 -17.17 -0.676
16:13 1006 29.71 836 24.69 -17.6 0.3 81 -20.2 -4.3 -17.16 -0.676
16:14 1007 29.74 836 24.69 -17.6 0.3 81 -20.1 -4.1 -17.13 -0.674
16:15 1007 29.74 836 24.69 -17.6 0.4 81 -20.1 -4.1 -17.11 -0.674
16:16 1007 29.74 836 24.69 -17.6 0.4 81 -20.1 -4.2 -17.1 -0.673
16:17 1007 29.74 836 24.69 -17.6 0.4 80 -20.2 -4.3 -17.14 -0.675
16:18 1006 29.71 836 24.69 -17.6 0.4 81 -20 -4 -17.07 -0.672
16:19 1006 29.71 836 24.69 -17.5 0.5 81 -20 -4.1 -17.09 -0.673
16:20 1006 29.71 836 24.69 -17.6 0.4 81 -20 -4.1 -17.09 -0.673
16:21 1006 29.71 836 24.69 -17.5 0.5 81 -20 -4.1 -17.03 -0.67
16:22 1006 29.71 836 24.69 -17.5 0.5 80 -20.1 -4.2 -17.04 -0.671
16:23 1006 29.71 836 24.69 -17.6 0.4 81 -20.1 -4.3 -17.06 -0.672
16:24 1007 29.74 836 24.69 -17.5 0.5 80 -20.1 -4.2 -17.07 -0.672
16:25 1007 29.74 836 24.69 -17.5 0.4 81 -20 -4.1 -17.06 -0.672
16:26 1007 29.74 836 24.69 -17.5 0.5 81 -20 -4 -17.03 -0.67
16:27 1006 29.71 836 24.69 -17.4 0.6 81 -20 -4 -16.99 -0.669
16:28 1006 29.71 836 24.69 -17.4 0.6 81 -19.9 -3.9 -16.99 -0.669
16:29 1006 29.71 836 24.69 -17.4 0.7 81 -19.9 -3.9 -16.99 -0.669
16:30 1006 29.71 836 24.69 -17.4 0.6 81 -20 -3.9 -16.96 -0.668
16:31 1006 29.71 836 24.69 -17.4 0.7 81 -20 -4 -16.95 -0.667
16:32 1006 29.71 836 24.69 -17.4 0.7 81 -19.9 -3.9 -16.97 -0.668
16:33 1006 29.71 836 24.69 -17.4 0.7 81 -19.9 -3.9 -16.95 -0.667
16:34 1006 29.71 836 24.69 -17.4 0.6 81 -20 -4 -16.93 -0.667
16:35 1006 29.71 836 24.69 -17.4 0.7 81 -19.9 -3.8 -16.97 -0.668
16:36 1006 29.71 836 24.69 -17.4 0.7 81 -19.9 -3.9 -16.95 -0.667
16:37 1006 29.71 836 24.69 -17.4 0.7 80 -20 -4 -16.97 -0.668
16:38 1006 29.71 836 24.69 -17.4 0.7 81 -20 -4 -16.94 -0.667
16:39 1007 29.74 836 24.69 -17.4 0.7 81 -19.9 -3.7 -16.93 -0.667
16:40 1007 29.74 836 24.69 -17.4 0.8 81 -19.9 -3.8 -16.87 -0.664
16:41 1007 29.74 836 24.69 -17.3 0.8 81 -19.9 -3.8 -16.88 -0.665
16:42 1007 29.74 836 24.69 -17.3 0.8 81 -19.9 -3.8 -16.88 -0.665
16:43 1007 29.74 836 24.69 -17.3 0.9 81 -19.8 -3.7 -16.89 -0.665
16:44 1007 29.74 836 24.69 -17.3 0.9 81 -19.8 -3.7 -16.82 -0.662
16:45 1007 29.74 836 24.69 -17.3 1 81 -19.7 -3.5 -16.8 -0.661
16:46 1007 29.74 836 24.69 -17.2 1 81 -19.7 -3.5 -16.79 -0.661
16:47 1007 29.74 836 24.69 -17.2 1 81 -19.8 -3.6 -16.76 -0.66
16:48 1007 29.74 836 24.69 -17.2 1.1 81 -19.7 -3.4 -16.73 -0.659
16:49 1007 29.74 836 24.69 -17.2 1.1 81 -19.7 -3.4 -16.74 -0.659
16:50 1007 29.74 836 24.69 -17.1 1.2 80 -19.7 -3.5 -16.74 -0.659
16:51 1007 29.74 836 24.69 -17.1 1.1 81 -19.7 -3.5 -16.74 -0.659
16:52 1007 29.74 836 24.69 -17.2 1.1 80 -19.8 -3.6 -16.76 -0.66
16:53 1007 29.74 836 24.69 -17.2 1.1 80 -19.8 -3.7 -16.75 -0.659
16:54 1007 29.74 836 24.69 -17.2 1.1 81 -19.8 -3.6 -16.74 -0.659
16:55 1007 29.74 836 24.69 -17.2 1.1 80 -19.8 -3.6 -16.73 -0.659
16:56 1007 29.74 836 24.69 -17.2 1.1 81 -19.8 -3.6 -16.77 -0.66
16:57 1007 29.74 836 24.69 -17.1 1.2 81 -19.7 -3.5 -16.73 -0.659
16:58 1007 29.74 836 24.69 -17.1 1.1 81 -19.7 -3.5 -16.74 -0.659
16:59 1007 29.74 836 24.69 -17.2 1.1 80 -19.8 -3.6 -16.75 -0.659
17:00 1007 29.74 836 24.69 -17.2 1.1 80 -19.8 -3.6 -16.7 -0.657
17:01 1007 29.74 836 24.69 -17.2 1.1 81 -19.8 -3.6 -16.69 -0.657
17:02 1007 29.74 836 24.69 -17.1 1.2 82 -19.6 -3.2 -16.73 -0.659
17:03 1007 29.74 836 24.69 -17.1 1.2 81 -19.7 -3.4 -16.66 -0.656
17:04 1007 29.74 836 24.69 -17.1 1.2 81 -19.6 -3.4 -16.66 -0.656
17:05 1007 29.74 836 24.69 -17.1 1.3 81 -19.6 -3.3 -16.65 -0.656
17:06 1007 29.74 836 24.69 -17.1 1.3 81 -19.6 -3.4 -16.63 -0.655
17:07 1007 29.74 836 24.69 -17.1 1.2 81 -19.7 -3.4 -16.64 -0.655
17:08 1007 29.74 836 24.69 -17.1 1.2 81 -19.7 -3.5 -16.65 -0.656
17:09 1007 29.74 836 24.69 -17.1 1.2 81 -19.7 -3.4 -16.68 -0.657
17:10 1007 29.74 836 24.69 -17.1 1.3 81 -19.6 -3.4 -16.65 -0.656
17:11 1007 29.74 836 24.69 -17.1 1.3 80 -19.7 -3.5 -16.64 -0.655
17:12 1007 29.74 837 24.72 -17.1 1.2 80 -19.7 -3.5 -16.65 -0.656
17:13 1007 29.74 837 24.72 -17.1 1.3 81 -19.7 -3.4 -16.66 -0.656
17:14 1007 29.74 837 24.72 -17 1.3 81 -19.6 -3.2 -16.64 -0.655
17:15 1008 29.77 837 24.72 -17 1.3 81 -19.6 -3.3 -16.63 -0.655
17:16 1007 29.74 837 24.72 -17 1.3 81 -19.6 -3.4 -16.6 -0.654
17:17 1007 29.74 836 24.69 -17 1.3 81 -19.6 -3.3 -16.61 -0.654
17:18 1007 29.74 836 24.69 -17 1.4 81 -19.6 -3.3 -16.61 -0.654
17:19 1007 29.74 836 24.69 -17.1 1.3 81 -19.6 -3.3 -16.62 -0.654
17:20 1007 29.74 836 24.69 -17.1 1.3 81 -19.6 -3.3 -16.6 -0.654
17:21 1007 29.74 836 24.69 -17 1.4 80 -19.6 -3.4 -16.58 -0.653
17:22 1007 29.74 836 24.69 -17 1.3 80 -19.6 -3.4 -16.63 -0.655
17:23 1007 29.74 836 24.69 -17 1.3 80 -19.7 -3.4 -16.63 -0.655
17:24 1007 29.74 836 24.69 -17.1 1.3 80 -19.7 -3.4 -16.63 -0.655
17:25 1007 29.74 836 24.69 -17 1.3 81 -19.6 -3.2 -16.63 -0.655
17:26 1007 29.74 837 24.72 -17.1 1.3 80 -19.7 -3.4 -16.63 -0.655
17:27 1007 29.74 837 24.72 -17 1.3 81 -19.6 -3.3 -16.63 -0.655
17:28 1007 29.74 837 24.72 -17 1.3 81 -19.6 -3.3 -16.64 -0.655
17:29 1007 29.74 837 24.72 -17.1 1.3 80 -19.7 -3.4 -16.61 -0.654
17:30 1007 29.74 836 24.69 -17 1.4 81 -19.6 -3.3 -16.63 -0.655
17:31 1007 29.74 836 24.69 -17 1.3 81 -19.6 -3.3 -16.59 -0.653
17:32 1007 29.74 837 24.72 -17 1.3 81 -19.6 -3.2 -16.6 -0.654
17:33 1007 29.74 837 24.72 -17 1.4 81 -19.5 -3.1 -16.55 -0.652
17:34 1007 29.74 837 24.72 -17 1.5 81 -19.5 -3.1 -16.53 -0.651
17:35 1007 29.74 837 24.72 -17 1.5 81 -19.5 -3.1 -16.52 -0.65
17:36 1008 29.77 837 24.72 -16.9 1.5 81 -19.5 -3 -16.52 -0.65
17:37 1007 29.74 837 24.72 -16.9 1.5 81 -19.5 -3.1 -16.49 -0.649
17:38 1007 29.74 837 24.72 -16.9 1.6 81 -19.5 -3.1 -16.53 -0.651
17:39 1007 29.74 837 24.72 -17 1.5 81 -19.5 -3.1 -16.51 -0.65
17:40 1008 29.77 837 24.72 -16.9 1.5 81 -19.5 -3.1 -16.52 -0.65
17:41 1008 29.77 837 24.72 -17 1.4 80 -19.6 -3.3 -16.57 -0.652
17:42 1008 29.77 837 24.72 -17 1.4 80 -19.6 -3.3 -16.55 -0.652
17:43 1008 29.77 837 24.72 -17 1.4 81 -19.6 -3.3 -16.57 -0.652
17:44 1008 29.77 837 24.72 -17 1.4 80 -19.6 -3.3 -16.56 -0.652
17:45 1008 29.77 837 24.72 -17 1.3 80 -19.7 -3.4 -16.57 -0.652
17:46 1007 29.74 837 24.72 -17 1.4 80 -19.6 -3.3 -16.56 -0.652
17:47 1007 29.74 837 24.72 -17 1.4 80 -19.6 -3.3 -16.6 -0.654
17:48 1007 29.74 837 24.72 -17 1.4 81 -19.5 -3.1 -16.57 -0.652
17:49 1007 29.74 837 24.72 -17 1.5 81 -19.4 -3 -16.51 -0.65
17:50 1007 29.74 837 24.72 -17 1.5 81 -19.5 -3.1 -16.49 -0.649
17:51 1007 29.74 837 24.72 -16.9 1.5 81 -19.5 -3.2 -16.51 -0.65
17:52 1008 29.77 837 24.72 -16.9 1.6 81 -19.5 -3.1 -16.49 -0.649
17:53 1008 29.77 837 24.72 -17 1.5 80 -19.6 -3.2 -16.5 -0.65
17:54 1008 29.77 837 24.72 -16.9 1.5 81 -19.4 -3 -16.51 -0.65
17:55 1008 29.77 837 24.72 -16.9 1.6 81 -19.4 -3 -16.48 -0.649
17:56 1008 29.77 837 24.72 -16.9 1.6 80 -19.5 -3.2 -16.44 -0.647
17:57 1008 29.77 837 24.72 -16.9 1.6 81 -19.5 -3.1 -16.48 -0.649
17:58 1007 29.74 837 24.72 -16.9 1.6 81 -19.5 -3.1 -16.47 -0.648
17:59 1008 29.77 837 24.72 -16.9 1.6 81 -19.5 -3.1 -16.52 -0.65
18:00 1008 29.77 837 24.72 -16.9 1.6 81 -19.5 -3 -16.47 -0.648
18:01 1008 29.77 837 24.72 -16.9 1.6 80 -19.5 -3.1 -16.47 -0.648
18:02 1008 29.77 837 24.72 -16.9 1.7 81 -19.4 -2.8 -16.44 -0.647
18:03 1008 29.77 837 24.72 -16.9 1.7 81 -19.5 -3 -16.42 -0.646
18:04 1008 29.77 837 24.72 -16.9 1.6 80 -19.5 -3.1 -16.43 -0.647
18:05 1008 29.77 837 24.72 -16.8 1.7 80 -19.5 -3 -16.42 -0.646
18:06 1008 29.77 837 24.72 -16.9 1.6 81 -19.5 -3 -16.42 -0.646
18:07 1008 29.77 837 24.72 -16.9 1.6 80 -19.5 -3.1 -16.45 -0.648